sensor_id;sensor_type;location;lat;lon;timestamp;P1;durP1;ratioP1;P2;durP2;ratioP2
18659;SDS011;9459;50.254;19.014;2023-10-19T00:02:14;39.58;;;23.50;;
18659;SDS011;9459;50.254;19.014;2023-10-19T00:04:48;40.63;;;23.17;;
18659;SDS011;9459;50.254;19.014;2023-10-19T00:07:16;45.67;;;25.08;;
18659;SDS011;9459;50.254;19.014;2023-10-19T00:09:44;41.83;;;24.33;;
18659;SDS011;9459;50.254;19.014;2023-10-19T00:12:18;44.10;;;23.30;;
18659;SDS011;9459;50.254;19.014;2023-10-19T00:14:49;42.20;;;23.55;;
18659;SDS011;9459;50.254;19.014;2023-10-19T00:17:17;44.92;;;24.48;;
18659;SDS011;9459;50.254;19.014;2023-10-19T00:19:49;44.58;;;23.27;;
18659;SDS011;9459;50.254;19.014;2023-10-19T00:22:45;40.88;;;23.05;;
18659;SDS011;9459;50.254;19.014;2023-10-19T00:25:13;41.08;;;23.77;;
18659;SDS011;9459;50.254;19.014;2023-10-19T00:27:41;40.78;;;22.73;;
18659;SDS011;9459;50.254;19.014;2023-10-19T00:30:10;40.47;;;24.17;;
18659;SDS011;9459;50.254;19.014;2023-10-19T00:32:39;43.17;;;24.15;;
18659;SDS011;9459;50.254;19.014;2023-10-19T00:35:09;40.72;;;22.85;;
18659;SDS011;9459;50.254;19.014;2023-10-19T00:37:54;40.17;;;24.42;;
18659;SDS011;9459;50.254;19.014;2023-10-19T00:40:39;40.83;;;23.20;;
18659;SDS011;9459;50.254;19.014;2023-10-19T00:43:12;43.80;;;24.05;;
18659;SDS011;9459;50.254;19.014;2023-10-19T00:45:44;42.85;;;23.98;;
18659;SDS011;9459;50.254;19.014;2023-10-19T00:48:14;42.00;;;24.30;;
18659;SDS011;9459;50.254;19.014;2023-10-19T00:50:46;42.70;;;25.40;;
18659;SDS011;9459;50.254;19.014;2023-10-19T00:53:19;42.80;;;24.75;;
18659;SDS011;9459;50.254;19.014;2023-10-19T00:55:48;43.42;;;25.40;;
18659;SDS011;9459;50.254;19.014;2023-10-19T00:58:17;48.22;;;25.88;;
18659;SDS011;9459;50.254;19.014;2023-10-19T01:00:50;43.08;;;24.08;;
18659;SDS011;9459;50.254;19.014;2023-10-19T01:03:21;39.78;;;24.67;;
18659;SDS011;9459;50.254;19.014;2023-10-19T01:06:00;47.20;;;25.27;;
18659;SDS011;9459;50.254;19.014;2023-10-19T01:08:32;42.10;;;23.85;;
18659;SDS011;9459;50.254;19.014;2023-10-19T01:11:08;43.67;;;25.35;;
18659;SDS011;9459;50.254;19.014;2023-10-19T01:13:40;45.55;;;26.92;;
18659;SDS011;9459;50.254;19.014;2023-10-19T01:16:12;49.47;;;27.27;;
18659;SDS011;9459;50.254;19.014;2023-10-19T01:18:48;44.55;;;26.05;;
18659;SDS011;9459;50.254;19.014;2023-10-19T01:21:23;45.70;;;27.38;;
18659;SDS011;9459;50.254;19.014;2023-10-19T01:24:06;60.55;;;35.08;;
18659;SDS011;9459;50.254;19.014;2023-10-19T01:26:36;64.65;;;35.72;;
18659;SDS011;9459;50.254;19.014;2023-10-19T01:29:05;69.28;;;35.22;;
18659;SDS011;9459;50.254;19.014;2023-10-19T01:31:40;61.92;;;34.60;;
18659;SDS011;9459;50.254;19.014;2023-10-19T01:34:23;49.78;;;29.67;;
18659;SDS011;9459;50.254;19.014;2023-10-19T01:36:54;62.15;;;33.03;;
18659;SDS011;9459;50.254;19.014;2023-10-19T01:39:24;60.42;;;33.30;;
18659;SDS011;9459;50.254;19.014;2023-10-19T01:41:52;63.22;;;34.33;;
18659;SDS011;9459;50.254;19.014;2023-10-19T01:44:21;67.47;;;32.95;;
18659;SDS011;9459;50.254;19.014;2023-10-19T01:46:48;67.82;;;34.90;;
18659;SDS011;9459;50.254;19.014;2023-10-19T01:49:17;67.30;;;36.72;;
18659;SDS011;9459;50.254;19.014;2023-10-19T01:51:53;65.10;;;36.25;;
18659;SDS011;9459;50.254;19.014;2023-10-19T01:54:24;74.35;;;38.20;;
18659;SDS011;9459;50.254;19.014;2023-10-19T01:56:52;70.25;;;38.10;;
18659;SDS011;9459;50.254;19.014;2023-10-19T01:59:23;72.43;;;41.17;;
18659;SDS011;9459;50.254;19.014;2023-10-19T02:01:54;77.32;;;41.80;;
18659;SDS011;9459;50.254;19.014;2023-10-19T02:04:24;64.80;;;35.17;;
18659;SDS011;9459;50.254;19.014;2023-10-19T02:06:53;69.28;;;39.67;;
18659;SDS011;9459;50.254;19.014;2023-10-19T02:09:21;77.13;;;42.45;;
18659;SDS011;9459;50.254;19.014;2023-10-19T02:11:52;80.00;;;42.90;;
18659;SDS011;9459;50.254;19.014;2023-10-19T02:14:23;71.75;;;41.42;;
18659;SDS011;9459;50.254;19.014;2023-10-19T02:16:52;64.85;;;38.95;;
18659;SDS011;9459;50.254;19.014;2023-10-19T02:19:25;62.50;;;37.38;;
18659;SDS011;9459;50.254;19.014;2023-10-19T02:21:56;63.38;;;38.67;;
18659;SDS011;9459;50.254;19.014;2023-10-19T02:24:25;62.92;;;36.50;;
18659;SDS011;9459;50.254;19.014;2023-10-19T02:26:56;54.40;;;32.88;;
18659;SDS011;9459;50.254;19.014;2023-10-19T02:29:24;56.80;;;34.25;;
18659;SDS011;9459;50.254;19.014;2023-10-19T02:31:53;59.28;;;33.83;;
18659;SDS011;9459;50.254;19.014;2023-10-19T02:34:23;59.63;;;32.90;;
18659;SDS011;9459;50.254;19.014;2023-10-19T02:36:51;53.85;;;32.97;;
18659;SDS011;9459;50.254;19.014;2023-10-19T02:39:19;58.13;;;33.63;;
18659;SDS011;9459;50.254;19.014;2023-10-19T02:41:47;59.65;;;33.92;;
18659;SDS011;9459;50.254;19.014;2023-10-19T02:44:17;52.00;;;31.50;;
18659;SDS011;9459;50.254;19.014;2023-10-19T02:46:50;61.63;;;34.55;;
18659;SDS011;9459;50.254;19.014;2023-10-19T02:49:21;60.85;;;34.92;;
18659;SDS011;9459;50.254;19.014;2023-10-19T02:51:50;59.08;;;35.53;;
18659;SDS011;9459;50.254;19.014;2023-10-19T02:54:20;56.35;;;31.10;;
18659;SDS011;9459;50.254;19.014;2023-10-19T02:56:50;56.72;;;32.47;;
18659;SDS011;9459;50.254;19.014;2023-10-19T02:59:20;60.30;;;32.90;;
18659;SDS011;9459;50.254;19.014;2023-10-19T03:01:50;61.83;;;33.78;;
18659;SDS011;9459;50.254;19.014;2023-10-19T03:04:19;49.35;;;31.45;;
18659;SDS011;9459;50.254;19.014;2023-10-19T03:06:48;54.45;;;31.67;;
18659;SDS011;9459;50.254;19.014;2023-10-19T03:09:16;56.25;;;31.55;;
18659;SDS011;9459;50.254;19.014;2023-10-19T03:11:49;56.17;;;31.92;;
18659;SDS011;9459;50.254;19.014;2023-10-19T03:14:21;59.00;;;33.33;;
18659;SDS011;9459;50.254;19.014;2023-10-19T03:16:52;50.17;;;29.40;;
18659;SDS011;9459;50.254;19.014;2023-10-19T03:19:22;54.95;;;32.35;;
18659;SDS011;9459;50.254;19.014;2023-10-19T03:21:52;59.47;;;35.85;;
18659;SDS011;9459;50.254;19.014;2023-10-19T03:24:19;58.58;;;35.42;;
18659;SDS011;9459;50.254;19.014;2023-10-19T03:27:02;55.95;;;33.42;;
18659;SDS011;9459;50.254;19.014;2023-10-19T03:29:41;56.15;;;31.63;;
18659;SDS011;9459;50.254;19.014;2023-10-19T03:32:13;57.03;;;31.55;;
18659;SDS011;9459;50.254;19.014;2023-10-19T03:34:42;55.65;;;29.77;;
18659;SDS011;9459;50.254;19.014;2023-10-19T03:37:15;55.58;;;32.55;;
18659;SDS011;9459;50.254;19.014;2023-10-19T03:39:46;54.22;;;30.45;;
18659;SDS011;9459;50.254;19.014;2023-10-19T03:42:15;56.08;;;29.92;;
18659;SDS011;9459;50.254;19.014;2023-10-19T03:44:45;53.53;;;30.30;;
18659;SDS011;9459;50.254;19.014;2023-10-19T03:47:20;54.05;;;31.08;;
18659;SDS011;9459;50.254;19.014;2023-10-19T03:49:53;59.50;;;32.45;;
18659;SDS011;9459;50.254;19.014;2023-10-19T03:52:21;57.85;;;32.50;;
18659;SDS011;9459;50.254;19.014;2023-10-19T03:54:50;54.13;;;30.10;;
18659;SDS011;9459;50.254;19.014;2023-10-19T03:57:19;52.80;;;30.10;;
18659;SDS011;9459;50.254;19.014;2023-10-19T03:59:51;49.80;;;28.52;;
18659;SDS011;9459;50.254;19.014;2023-10-19T04:02:24;51.17;;;29.15;;
18659;SDS011;9459;50.254;19.014;2023-10-19T04:04:56;53.63;;;30.80;;
18659;SDS011;9459;50.254;19.014;2023-10-19T04:07:25;51.22;;;28.50;;
18659;SDS011;9459;50.254;19.014;2023-10-19T04:09:59;47.65;;;28.52;;
18659;SDS011;9459;50.254;19.014;2023-10-19T04:12:57;49.50;;;27.70;;
18659;SDS011;9459;50.254;19.014;2023-10-19T04:15:28;47.92;;;28.35;;
18659;SDS011;9459;50.254;19.014;2023-10-19T04:18:01;48.35;;;27.10;;
18659;SDS011;9459;50.254;19.014;2023-10-19T04:20:36;51.13;;;27.92;;
18659;SDS011;9459;50.254;19.014;2023-10-19T04:23:23;53.92;;;30.33;;
18659;SDS011;9459;50.254;19.014;2023-10-19T04:25:54;48.65;;;30.50;;
18659;SDS011;9459;50.254;19.014;2023-10-19T04:28:30;54.67;;;31.73;;
18659;SDS011;9459;50.254;19.014;2023-10-19T04:31:06;54.05;;;30.63;;
18659;SDS011;9459;50.254;19.014;2023-10-19T04:33:40;52.55;;;30.40;;
18659;SDS011;9459;50.254;19.014;2023-10-19T04:36:13;56.45;;;33.00;;
18659;SDS011;9459;50.254;19.014;2023-10-19T04:38:42;53.08;;;31.83;;
18659;SDS011;9459;50.254;19.014;2023-10-19T04:41:11;52.50;;;31.23;;
18659;SDS011;9459;50.254;19.014;2023-10-19T04:43:40;52.72;;;30.83;;
18659;SDS011;9459;50.254;19.014;2023-10-19T04:46:14;45.55;;;26.88;;
18659;SDS011;9459;50.254;19.014;2023-10-19T04:48:46;48.83;;;29.05;;
18659;SDS011;9459;50.254;19.014;2023-10-19T04:51:16;44.90;;;27.13;;
18659;SDS011;9459;50.254;19.014;2023-10-19T04:53:45;43.95;;;26.48;;
18659;SDS011;9459;50.254;19.014;2023-10-19T04:56:13;44.60;;;27.48;;
18659;SDS011;9459;50.254;19.014;2023-10-19T04:58:42;40.45;;;24.33;;
18659;SDS011;9459;50.254;19.014;2023-10-19T05:01:10;45.17;;;24.90;;
18659;SDS011;9459;50.254;19.014;2023-10-19T05:03:41;43.08;;;25.30;;
18659;SDS011;9459;50.254;19.014;2023-10-19T05:06:09;43.22;;;24.98;;
18659;SDS011;9459;50.254;19.014;2023-10-19T05:08:38;41.10;;;23.92;;
18659;SDS011;9459;50.254;19.014;2023-10-19T05:11:07;42.00;;;25.85;;
18659;SDS011;9459;50.254;19.014;2023-10-19T05:13:35;48.30;;;28.55;;
18659;SDS011;9459;50.254;19.014;2023-10-19T05:16:04;40.38;;;24.50;;
18659;SDS011;9459;50.254;19.014;2023-10-19T05:18:34;42.72;;;23.50;;
18659;SDS011;9459;50.254;19.014;2023-10-19T05:21:04;40.38;;;22.95;;
18659;SDS011;9459;50.254;19.014;2023-10-19T05:23:33;35.67;;;22.08;;
18659;SDS011;9459;50.254;19.014;2023-10-19T05:26:01;39.72;;;23.30;;
18659;SDS011;9459;50.254;19.014;2023-10-19T05:28:31;38.28;;;22.08;;
18659;SDS011;9459;50.254;19.014;2023-10-19T05:31:00;36.97;;;20.52;;
18659;SDS011;9459;50.254;19.014;2023-10-19T05:33:28;34.00;;;21.27;;
18659;SDS011;9459;50.254;19.014;2023-10-19T05:35:57;33.95;;;20.05;;
18659;SDS011;9459;50.254;19.014;2023-10-19T05:38:27;38.13;;;20.85;;
18659;SDS011;9459;50.254;19.014;2023-10-19T05:40:56;31.58;;;19.75;;
18659;SDS011;9459;50.254;19.014;2023-10-19T05:43:26;35.25;;;20.17;;
18659;SDS011;9459;50.254;19.014;2023-10-19T05:45:55;31.98;;;18.52;;
18659;SDS011;9459;50.254;19.014;2023-10-19T05:48:24;33.30;;;19.80;;
18659;SDS011;9459;50.254;19.014;2023-10-19T05:50:52;36.22;;;20.00;;
18659;SDS011;9459;50.254;19.014;2023-10-19T05:53:21;34.25;;;19.88;;
18659;SDS011;9459;50.254;19.014;2023-10-19T05:55:51;35.53;;;20.35;;
18659;SDS011;9459;50.254;19.014;2023-10-19T05:58:20;32.95;;;20.45;;
18659;SDS011;9459;50.254;19.014;2023-10-19T06:00:48;35.60;;;22.20;;
18659;SDS011;9459;50.254;19.014;2023-10-19T06:03:19;39.17;;;23.50;;
18659;SDS011;9459;50.254;19.014;2023-10-19T06:05:48;38.97;;;23.20;;
18659;SDS011;9459;50.254;19.014;2023-10-19T06:08:17;36.47;;;22.50;;
18659;SDS011;9459;50.254;19.014;2023-10-19T06:10:49;40.28;;;23.98;;
18659;SDS011;9459;50.254;19.014;2023-10-19T06:13:20;40.78;;;23.10;;
18659;SDS011;9459;50.254;19.014;2023-10-19T06:15:49;38.63;;;22.98;;
18659;SDS011;9459;50.254;19.014;2023-10-19T06:18:19;35.65;;;22.02;;
18659;SDS011;9459;50.254;19.014;2023-10-19T06:20:47;47.70;;;24.80;;
18659;SDS011;9459;50.254;19.014;2023-10-19T06:23:18;37.33;;;22.33;;
18659;SDS011;9459;50.254;19.014;2023-10-19T06:25:47;44.45;;;24.80;;
18659;SDS011;9459;50.254;19.014;2023-10-19T06:28:18;44.45;;;25.08;;
18659;SDS011;9459;50.254;19.014;2023-10-19T06:30:47;45.30;;;24.70;;
18659;SDS011;9459;50.254;19.014;2023-10-19T06:33:17;40.90;;;23.33;;
18659;SDS011;9459;50.254;19.014;2023-10-19T06:35:46;41.80;;;23.05;;
18659;SDS011;9459;50.254;19.014;2023-10-19T06:38:15;44.63;;;23.17;;
18659;SDS011;9459;50.254;19.014;2023-10-19T06:40:45;44.83;;;23.60;;
18659;SDS011;9459;50.254;19.014;2023-10-19T06:43:14;36.38;;;22.58;;
18659;SDS011;9459;50.254;19.014;2023-10-19T06:45:45;41.25;;;23.48;;
18659;SDS011;9459;50.254;19.014;2023-10-19T06:48:13;37.78;;;22.80;;
18659;SDS011;9459;50.254;19.014;2023-10-19T06:50:41;40.90;;;23.45;;
18659;SDS011;9459;50.254;19.014;2023-10-19T06:53:15;42.63;;;24.10;;
18659;SDS011;9459;50.254;19.014;2023-10-19T06:55:43;49.70;;;26.13;;
18659;SDS011;9459;50.254;19.014;2023-10-19T06:58:12;38.25;;;22.30;;
18659;SDS011;9459;50.254;19.014;2023-10-19T07:00:41;44.88;;;25.30;;
18659;SDS011;9459;50.254;19.014;2023-10-19T07:03:15;43.08;;;25.17;;
18659;SDS011;9459;50.254;19.014;2023-10-19T07:05:44;36.70;;;22.40;;
18659;SDS011;9459;50.254;19.014;2023-10-19T07:08:12;43.08;;;25.60;;
18659;SDS011;9459;50.254;19.014;2023-10-19T07:10:41;45.63;;;24.98;;
18659;SDS011;9459;50.254;19.014;2023-10-19T07:13:10;42.55;;;23.67;;
18659;SDS011;9459;50.254;19.014;2023-10-19T07:15:38;43.58;;;20.73;;
18659;SDS011;9459;50.254;19.014;2023-10-19T07:18:08;35.55;;;21.00;;
18659;SDS011;9459;50.254;19.014;2023-10-19T07:20:40;38.00;;;20.25;;
18659;SDS011;9459;50.254;19.014;2023-10-19T07:23:09;40.53;;;22.67;;
18659;SDS011;9459;50.254;19.014;2023-10-19T07:25:47;40.08;;;23.38;;
18659;SDS011;9459;50.254;19.014;2023-10-19T07:28:22;48.80;;;24.77;;
18659;SDS011;9459;50.254;19.014;2023-10-19T07:30:53;45.15;;;27.55;;
18659;SDS011;9459;50.254;19.014;2023-10-19T07:33:23;39.88;;;21.85;;
18659;SDS011;9459;50.254;19.014;2023-10-19T07:35:54;39.95;;;20.60;;
18659;SDS011;9459;50.254;19.014;2023-10-19T07:38:23;30.75;;;18.08;;
18659;SDS011;9459;50.254;19.014;2023-10-19T07:40:52;35.10;;;19.23;;
18659;SDS011;9459;50.254;19.014;2023-10-19T07:43:21;34.33;;;19.08;;
18659;SDS011;9459;50.254;19.014;2023-10-19T07:45:52;50.88;;;30.25;;
18659;SDS011;9459;50.254;19.014;2023-10-19T07:48:21;38.97;;;21.23;;
18659;SDS011;9459;50.254;19.014;2023-10-19T07:50:49;37.78;;;21.70;;
18659;SDS011;9459;50.254;19.014;2023-10-19T07:53:21;37.13;;;22.13;;
18659;SDS011;9459;50.254;19.014;2023-10-19T07:58:20;36.80;;;20.80;;
18659;SDS011;9459;50.254;19.014;2023-10-19T08:00:48;32.50;;;21.05;;
18659;SDS011;9459;50.254;19.014;2023-10-19T08:03:17;34.55;;;21.02;;
18659;SDS011;9459;50.254;19.014;2023-10-19T08:05:46;30.70;;;18.27;;
18659;SDS011;9459;50.254;19.014;2023-10-19T08:08:15;47.08;;;25.10;;
18659;SDS011;9459;50.254;19.014;2023-10-19T08:10:46;35.67;;;19.88;;
18659;SDS011;9459;50.254;19.014;2023-10-19T08:13:16;34.75;;;19.05;;
18659;SDS011;9459;50.254;19.014;2023-10-19T08:15:45;36.58;;;19.90;;
18659;SDS011;9459;50.254;19.014;2023-10-19T08:18:13;34.88;;;20.70;;
18659;SDS011;9459;50.254;19.014;2023-10-19T08:20:42;29.50;;;18.65;;
18659;SDS011;9459;50.254;19.014;2023-10-19T08:23:12;33.42;;;18.35;;
18659;SDS011;9459;50.254;19.014;2023-10-19T08:25:43;29.17;;;17.52;;
18659;SDS011;9459;50.254;19.014;2023-10-19T08:28:24;30.42;;;18.00;;
18659;SDS011;9459;50.254;19.014;2023-10-19T08:30:54;28.85;;;17.98;;
18659;SDS011;9459;50.254;19.014;2023-10-19T08:33:28;30.02;;;19.77;;
18659;SDS011;9459;50.254;19.014;2023-10-19T08:36:02;29.27;;;17.05;;
18659;SDS011;9459;50.254;19.014;2023-10-19T08:38:31;30.85;;;16.45;;
18659;SDS011;9459;50.254;19.014;2023-10-19T08:40:59;26.40;;;16.23;;
18659;SDS011;9459;50.254;19.014;2023-10-19T08:43:30;28.30;;;17.85;;
18659;SDS011;9459;50.254;19.014;2023-10-19T08:46:00;27.73;;;15.98;;
18659;SDS011;9459;50.254;19.014;2023-10-19T08:48:33;36.22;;;16.65;;
18659;SDS011;9459;50.254;19.014;2023-10-19T08:51:02;26.75;;;15.00;;
18659;SDS011;9459;50.254;19.014;2023-10-19T08:53:32;32.25;;;16.10;;
18659;SDS011;9459;50.254;19.014;2023-10-19T08:56:06;25.85;;;16.05;;
18659;SDS011;9459;50.254;19.014;2023-10-19T08:58:36;29.58;;;16.27;;
18659;SDS011;9459;50.254;19.014;2023-10-19T09:01:05;23.38;;;14.65;;
18659;SDS011;9459;50.254;19.014;2023-10-19T09:03:37;27.48;;;16.42;;
18659;SDS011;9459;50.254;19.014;2023-10-19T09:06:07;28.67;;;16.13;;
18659;SDS011;9459;50.254;19.014;2023-10-19T09:08:36;35.03;;;20.70;;
18659;SDS011;9459;50.254;19.014;2023-10-19T09:13:44;28.15;;;18.13;;
18659;SDS011;9459;50.254;19.014;2023-10-19T09:16:14;34.22;;;21.80;;
18659;SDS011;9459;50.254;19.014;2023-10-19T09:18:44;33.10;;;20.23;;
18659;SDS011;9459;50.254;19.014;2023-10-19T09:21:15;41.30;;;23.80;;
18659;SDS011;9459;50.254;19.014;2023-10-19T09:23:51;34.08;;;21.33;;
18659;SDS011;9459;50.254;19.014;2023-10-19T09:26:21;40.17;;;23.67;;
18659;SDS011;9459;50.254;19.014;2023-10-19T09:28:52;33.45;;;20.80;;
18659;SDS011;9459;50.254;19.014;2023-10-19T09:31:21;37.95;;;20.33;;
18659;SDS011;9459;50.254;19.014;2023-10-19T09:33:52;30.90;;;17.48;;
18659;SDS011;9459;50.254;19.014;2023-10-19T09:36:22;26.17;;;15.80;;
18659;SDS011;9459;50.254;19.014;2023-10-19T09:38:53;28.33;;;16.20;;
18659;SDS011;9459;50.254;19.014;2023-10-19T09:41:24;28.42;;;18.02;;
18659;SDS011;9459;50.254;19.014;2023-10-19T09:46:32;26.55;;;16.30;;
18659;SDS011;9459;50.254;19.014;2023-10-19T09:49:04;32.60;;;19.63;;
18659;SDS011;9459;50.254;19.014;2023-10-19T09:51:33;27.40;;;17.38;;
18659;SDS011;9459;50.254;19.014;2023-10-19T09:54:04;23.45;;;14.20;;
18659;SDS011;9459;50.254;19.014;2023-10-19T09:56:38;23.00;;;14.05;;
18659;SDS011;9459;50.254;19.014;2023-10-19T09:59:13;24.90;;;15.40;;
18659;SDS011;9459;50.254;19.014;2023-10-19T10:02:05;29.70;;;17.17;;
18659;SDS011;9459;50.254;19.014;2023-10-19T10:04:36;31.10;;;17.83;;
18659;SDS011;9459;50.254;19.014;2023-10-19T10:07:04;29.85;;;17.30;;
18659;SDS011;9459;50.254;19.014;2023-10-19T10:09:34;24.63;;;14.43;;
18659;SDS011;9459;50.254;19.014;2023-10-19T10:12:16;24.35;;;14.07;;
18659;SDS011;9459;50.254;19.014;2023-10-19T10:14:56;27.88;;;14.57;;
18659;SDS011;9459;50.254;19.014;2023-10-19T10:17:26;23.38;;;14.82;;
18659;SDS011;9459;50.254;19.014;2023-10-19T10:19:56;23.10;;;13.55;;
18659;SDS011;9459;50.254;19.014;2023-10-19T10:25:45;25.35;;;14.55;;
18659;SDS011;9459;50.254;19.014;2023-10-19T10:28:15;23.92;;;14.52;;
18659;SDS011;9459;50.254;19.014;2023-10-19T10:33:42;24.08;;;13.90;;
18659;SDS011;9459;50.254;19.014;2023-10-19T10:36:13;27.13;;;14.65;;
18659;SDS011;9459;50.254;19.014;2023-10-19T10:38:42;28.20;;;15.63;;
18659;SDS011;9459;50.254;19.014;2023-10-19T10:41:11;29.67;;;16.90;;
18659;SDS011;9459;50.254;19.014;2023-10-19T10:43:52;41.47;;;20.38;;
18659;SDS011;9459;50.254;19.014;2023-10-19T10:46:24;28.35;;;16.00;;
18659;SDS011;9459;50.254;19.014;2023-10-19T10:48:54;27.52;;;15.95;;
18659;SDS011;9459;50.254;19.014;2023-10-19T10:51:23;31.83;;;17.50;;
18659;SDS011;9459;50.254;19.014;2023-10-19T10:53:56;26.58;;;14.73;;
18659;SDS011;9459;50.254;19.014;2023-10-19T10:56:25;23.77;;;15.77;;
18659;SDS011;9459;50.254;19.014;2023-10-19T10:58:55;21.02;;;14.60;;
18659;SDS011;9459;50.254;19.014;2023-10-19T11:01:29;22.95;;;14.05;;
18659;SDS011;9459;50.254;19.014;2023-10-19T11:04:07;22.40;;;14.45;;
18659;SDS011;9459;50.254;19.014;2023-10-19T11:06:47;32.65;;;20.35;;
18659;SDS011;9459;50.254;19.014;2023-10-19T11:09:16;21.75;;;14.18;;
18659;SDS011;9459;50.254;19.014;2023-10-19T11:11:46;22.83;;;14.38;;
18659;SDS011;9459;50.254;19.014;2023-10-19T11:14:16;20.35;;;13.63;;
18659;SDS011;9459;50.254;19.014;2023-10-19T11:16:46;24.52;;;14.82;;
18659;SDS011;9459;50.254;19.014;2023-10-19T11:19:14;23.35;;;15.82;;
18659;SDS011;9459;50.254;19.014;2023-10-19T11:21:53;24.70;;;14.90;;
18659;SDS011;9459;50.254;19.014;2023-10-19T11:24:26;26.15;;;16.38;;
18659;SDS011;9459;50.254;19.014;2023-10-19T11:27:01;22.83;;;15.45;;
18659;SDS011;9459;50.254;19.014;2023-10-19T11:29:29;22.83;;;15.45;;
18659;SDS011;9459;50.254;19.014;2023-10-19T11:31:59;25.50;;;16.88;;
18659;SDS011;9459;50.254;19.014;2023-10-19T11:34:29;26.10;;;15.38;;
18659;SDS011;9459;50.254;19.014;2023-10-19T11:37:02;23.05;;;15.55;;
18659;SDS011;9459;50.254;19.014;2023-10-19T11:39:32;24.55;;;15.70;;
18659;SDS011;9459;50.254;19.014;2023-10-19T11:42:00;22.45;;;14.73;;
18659;SDS011;9459;50.254;19.014;2023-10-19T11:44:29;23.13;;;15.20;;
18659;SDS011;9459;50.254;19.014;2023-10-19T11:46:59;21.77;;;14.27;;
18659;SDS011;9459;50.254;19.014;2023-10-19T11:49:28;22.73;;;14.75;;
18659;SDS011;9459;50.254;19.014;2023-10-19T11:51:56;20.27;;;13.68;;
18659;SDS011;9459;50.254;19.014;2023-10-19T11:54:25;22.23;;;14.07;;
18659;SDS011;9459;50.254;19.014;2023-10-19T11:56:54;20.40;;;13.50;;
18659;SDS011;9459;50.254;19.014;2023-10-19T11:59:23;19.75;;;13.40;;
18659;SDS011;9459;50.254;19.014;2023-10-19T12:01:51;22.77;;;15.27;;
18659;SDS011;9459;50.254;19.014;2023-10-19T12:04:23;21.55;;;14.35;;
18659;SDS011;9459;50.254;19.014;2023-10-19T12:06:53;20.52;;;14.18;;
18659;SDS011;9459;50.254;19.014;2023-10-19T12:09:21;22.05;;;15.50;;
18659;SDS011;9459;50.254;19.014;2023-10-19T12:11:52;24.17;;;18.00;;
18659;SDS011;9459;50.254;19.014;2023-10-19T12:14:21;28.35;;;20.52;;
18659;SDS011;9459;50.254;19.014;2023-10-19T12:16:50;27.50;;;20.33;;
18659;SDS011;9459;50.254;19.014;2023-10-19T12:19:24;28.75;;;21.38;;
18659;SDS011;9459;50.254;19.014;2023-10-19T12:21:53;26.50;;;18.63;;
18659;SDS011;9459;50.254;19.014;2023-10-19T12:24:22;28.77;;;20.63;;
18659;SDS011;9459;50.254;19.014;2023-10-19T12:26:51;25.27;;;18.67;;
18659;SDS011;9459;50.254;19.014;2023-10-19T12:29:19;33.20;;;21.83;;
18659;SDS011;9459;50.254;19.014;2023-10-19T12:31:48;32.22;;;22.45;;
18659;SDS011;9459;50.254;19.014;2023-10-19T12:34:17;36.17;;;24.27;;
18659;SDS011;9459;50.254;19.014;2023-10-19T12:36:48;32.60;;;22.17;;
18659;SDS011;9459;50.254;19.014;2023-10-19T12:42:00;28.10;;;20.52;;
18659;SDS011;9459;50.254;19.014;2023-10-19T12:44:30;28.02;;;20.52;;
18659;SDS011;9459;50.254;19.014;2023-10-19T12:47:07;24.35;;;17.70;;
18659;SDS011;9459;50.254;19.014;2023-10-19T12:49:37;29.50;;;19.33;;
18659;SDS011;9459;50.254;19.014;2023-10-19T12:52:08;31.35;;;20.98;;
18659;SDS011;9459;50.254;19.014;2023-10-19T12:54:37;36.23;;;23.30;;
18659;SDS011;9459;50.254;19.014;2023-10-19T12:57:06;41.58;;;29.00;;
18659;SDS011;9459;50.254;19.014;2023-10-19T12:59:36;32.80;;;23.15;;
18659;SDS011;9459;50.254;19.014;2023-10-19T13:02:06;34.63;;;25.95;;
18659;SDS011;9459;50.254;19.014;2023-10-19T13:04:36;39.83;;;26.20;;
18659;SDS011;9459;50.254;19.014;2023-10-19T13:07:05;37.10;;;28.35;;
18659;SDS011;9459;50.254;19.014;2023-10-19T13:09:35;36.38;;;27.30;;
18659;SDS011;9459;50.254;19.014;2023-10-19T13:12:04;40.60;;;28.92;;
18659;SDS011;9459;50.254;19.014;2023-10-19T13:14:34;42.50;;;30.13;;
18659;SDS011;9459;50.254;19.014;2023-10-19T13:17:03;41.97;;;30.00;;
18659;SDS011;9459;50.254;19.014;2023-10-19T13:19:32;43.10;;;29.77;;
18659;SDS011;9459;50.254;19.014;2023-10-19T13:22:03;42.80;;;30.73;;
18659;SDS011;9459;50.254;19.014;2023-10-19T13:24:35;44.05;;;34.38;;
18659;SDS011;9459;50.254;19.014;2023-10-19T13:27:09;42.53;;;30.70;;
18659;SDS011;9459;50.254;19.014;2023-10-19T13:29:37;39.05;;;29.55;;
18659;SDS011;9459;50.254;19.014;2023-10-19T13:32:09;45.67;;;31.83;;
18659;SDS011;9459;50.254;19.014;2023-10-19T13:34:38;41.85;;;31.55;;
18659;SDS011;9459;50.254;19.014;2023-10-19T13:37:07;46.17;;;31.52;;
18659;SDS011;9459;50.254;19.014;2023-10-19T13:39:37;39.38;;;29.73;;
18659;SDS011;9459;50.254;19.014;2023-10-19T13:42:06;37.83;;;30.10;;
18659;SDS011;9459;50.254;19.014;2023-10-19T13:44:36;35.13;;;26.27;;
18659;SDS011;9459;50.254;19.014;2023-10-19T13:47:05;34.22;;;25.48;;
18659;SDS011;9459;50.254;19.014;2023-10-19T13:49:36;37.28;;;26.00;;
18659;SDS011;9459;50.254;19.014;2023-10-19T13:52:04;56.17;;;32.92;;
18659;SDS011;9459;50.254;19.014;2023-10-19T13:54:37;46.78;;;30.13;;
18659;SDS011;9459;50.254;19.014;2023-10-19T13:57:05;53.10;;;33.45;;
18659;SDS011;9459;50.254;19.014;2023-10-19T13:59:34;41.28;;;27.75;;
18659;SDS011;9459;50.254;19.014;2023-10-19T14:02:02;46.72;;;30.52;;
18659;SDS011;9459;50.254;19.014;2023-10-19T14:04:32;45.20;;;31.70;;
18659;SDS011;9459;50.254;19.014;2023-10-19T14:07:01;47.17;;;34.25;;
18659;SDS011;9459;50.254;19.014;2023-10-19T14:09:29;43.97;;;32.47;;
18659;SDS011;9459;50.254;19.014;2023-10-19T14:12:00;49.00;;;35.25;;
18659;SDS011;9459;50.254;19.014;2023-10-19T14:14:30;48.65;;;32.35;;
18659;SDS011;9459;50.254;19.014;2023-10-19T14:16:59;43.80;;;33.65;;
18659;SDS011;9459;50.254;19.014;2023-10-19T14:19:28;42.60;;;31.20;;
18659;SDS011;9459;50.254;19.014;2023-10-19T14:21:59;45.30;;;31.33;;
18659;SDS011;9459;50.254;19.014;2023-10-19T14:24:29;42.65;;;31.25;;
18659;SDS011;9459;50.254;19.014;2023-10-19T14:26:59;41.47;;;31.63;;
18659;SDS011;9459;50.254;19.014;2023-10-19T14:29:29;39.70;;;29.70;;
18659;SDS011;9459;50.254;19.014;2023-10-19T14:31:58;36.88;;;26.92;;
18659;SDS011;9459;50.254;19.014;2023-10-19T14:34:27;45.88;;;33.45;;
18659;SDS011;9459;50.254;19.014;2023-10-19T14:36:56;32.72;;;26.38;;
18659;SDS011;9459;50.254;19.014;2023-10-19T14:39:25;35.20;;;27.63;;
18659;SDS011;9459;50.254;19.014;2023-10-19T14:41:53;35.33;;;26.15;;
18659;SDS011;9459;50.254;19.014;2023-10-19T14:44:23;35.83;;;24.92;;
18659;SDS011;9459;50.254;19.014;2023-10-19T14:46:51;36.55;;;27.13;;
18659;SDS011;9459;50.254;19.014;2023-10-19T14:49:20;36.20;;;26.95;;
18659;SDS011;9459;50.254;19.014;2023-10-19T14:51:49;43.50;;;32.60;;
18659;SDS011;9459;50.254;19.014;2023-10-19T14:54:18;41.05;;;30.13;;
18659;SDS011;9459;50.254;19.014;2023-10-19T14:56:46;44.97;;;32.55;;
18659;SDS011;9459;50.254;19.014;2023-10-19T14:59:14;46.15;;;33.72;;